LWSK/SKP METAR and TAF weather

Enter ICAO airport designator
Station Type Date Time Source
LWSK METAR 2020/11/27 14:00 UTC NOAA

LWSK 271400Z 00000KT CAVOK 11/M00 Q1021 NOSIG


Station Type Date Time Source
LWSK Decoded METAR 2020/11/27 14:00 UTC NOAA

Skopje-Petrovec, Macedonia, The Republic of (LWSK) 41-58N 021-39E 239M
Nov 27, 2020 - 09:00 AM EST / 2020.11.27 1400 UTC
Wind: Calm:0
Visibility: greater than 7 mile(s):0
Temperature: 51 F (11 C)
Dew Point: 32 F (0 C)
Relative Humidity: 46%
Pressure (altimeter): 30.15 in. Hg (1021 hPa)
ob: LWSK 271400Z 00000KT CAVOK 11/M00 Q1021 NOSIG
cycle: 14

Station Type Date Time Source
LWSK TAF 2020/11/27 09:52 UTC NOAA

TAF COR LWSK 270830Z 2709/2809 VRB02KT 5000 BR NSC
BECMG 2711/2713 CAVOK
BECMG 2719/2721 5000 BR NSC
BECMG 2804/2806 3000 BR SCT010

Example: see airport list